Time;durP1;ratioP1;P1;durP2;ratioP2;P2;SDS_P1;SDS_P2;PMS_P1;PMS_P2;Temp;Humidity;BMP_temperature;BMP_pressure;BME280_temperature;BME280_humidity;BME280_pressure;Samples;Min_cycle;Max_cycle;Signal;HPM_P1;HPM_P2
2022/08/17 00:03:57;;;;;;;17.17;11.35;;;;;;;;;;9987495;29;20060;-69
2022/08/17 00:08:55;;;;;;;16.30;11.75;;;;;;;;;;9985099;29;20044;-69
2022/08/17 00:13:53;;;;;;;12.73;11.40;;;;;;;;;;9988618;29;20139;-70
2022/08/17 00:18:51;;;;;;;13.95;10.52;;;;;;;;;;9988810;29;20052;-69
2022/08/17 00:24:03;;;;;;;15.80;10.90;;;;;;;;;;9988711;29;20052;-70
2022/08/17 00:29:00;;;;;;;13.43;10.93;;;;;;;;;;9985094;29;20569;-69
2022/08/17 00:33:56;;;;;;;13.23;11.40;;;;;;;;;;9990607;29;20148;-69
2022/08/17 00:38:52;;;;;;;13.60;11.70;;;;;;;;;;9980667;29;20522;-69
2022/08/17 00:43:51;;;;;;;13.68;10.60;;;;;;;;;;9990825;29;20044;-69
2022/08/17 00:48:48;;;;;;;13.15;11.10;;;;;;;;;;9984236;29;20044;-69
2022/08/17 00:53:48;;;;;;;12.50;11.15;;;;;;;;;;9990491;29;20562;-71
2022/08/17 00:58:45;;;;;;;14.65;11.43;;;;;;;;;;9989954;29;20127;-71
2022/08/17 01:03:42;;;;;;;14.68;10.85;;;;;;;;;;9994317;29;20092;-70
2022/08/17 01:08:39;;;;;;;21.55;10.75;;;;;;;;;;9996190;29;20557;-70
2022/08/17 01:13:38;;;;;;;431.23;39.28;;;;;;;;;;9995838;29;20052;-71
2022/08/17 01:18:36;;;;;;;14.65;12.68;;;;;;;;;;9987556;29;20056;-71
2022/08/17 01:23:33;;;;;;;42.08;16.00;;;;;;;;;;9997088;29;20182;-69
2022/08/17 01:28:31;;;;;;;16.52;13.98;;;;;;;;;;9995864;29;20051;-69
2022/08/17 01:33:47;;;;;;;15.85;13.85;;;;;;;;;;9994635;29;20040;-69
2022/08/17 01:38:44;;;;;;;17.52;12.15;;;;;;;;;;9992815;29;20143;-70
2022/08/17 01:43:42;;;;;;;16.75;14.90;;;;;;;;;;9991139;29;20502;-70
2022/08/17 01:48:38;;;;;;;18.90;14.18;;;;;;;;;;9988030;29;20092;-70
2022/08/17 01:53:38;;;;;;;18.30;14.35;;;;;;;;;;9996623;29;20139;-70
2022/08/17 01:58:35;;;;;;;16.02;14.35;;;;;;;;;;9993792;29;20079;-70
2022/08/17 02:03:33;;;;;;;16.85;14.32;;;;;;;;;;9995056;29;20107;-70
2022/08/17 02:08:34;;;;;;;16.13;14.07;;;;;;;;;;9980232;29;20123;-70
2022/08/17 02:13:50;;;;;;;15.82;14.13;;;;;;;;;;9988431;29;20127;-70
2022/08/17 02:18:57;;;;;;;18.50;15.80;;;;;;;;;;9993578;29;20078;-70
2022/08/17 02:23:54;;;;;;;20.30;16.38;;;;;;;;;;9990962;29;20092;-70
2022/08/17 02:28:50;;;;;;;17.52;13.98;;;;;;;;;;9991057;29;20135;-69
2022/08/17 02:33:48;;;;;;;16.58;14.57;;;;;;;;;;9994509;29;20048;-70
2022/08/17 02:39:03;;;;;;;14.57;13.00;;;;;;;;;;9987532;29;20059;-70
2022/08/17 02:43:59;;;;;;;14.80;13.20;;;;;;;;;;9991749;29;20079;-70
2022/08/17 02:48:56;;;;;;;15.27;13.68;;;;;;;;;;9993496;29;20411;-70
2022/08/17 02:53:53;;;;;;;17.27;13.75;;;;;;;;;;9992545;29;20079;-70
2022/08/17 02:59:09;;;;;;;16.48;13.70;;;;;;;;;;9991774;29;20050;-70
2022/08/17 03:04:05;;;;;;;17.55;14.90;;;;;;;;;;9991226;29;20052;-70
2022/08/17 03:09:02;;;;;;;17.48;14.32;;;;;;;;;;9993888;29;20119;-70
2022/08/17 03:13:58;;;;;;;17.67;14.70;;;;;;;;;;9988085;29;20054;-69
2022/08/17 03:18:55;;;;;;;17.83;15.68;;;;;;;;;;9989386;29;20138;-70
2022/08/17 03:23:51;;;;;;;17.50;15.48;;;;;;;;;;9996747;29;20059;-70
2022/08/17 03:28:49;;;;;;;21.20;17.70;;;;;;;;;;9988424;29;20040;-69
2022/08/17 03:33:46;;;;;;;20.55;17.65;;;;;;;;;;9988948;29;20079;-69
2022/08/17 03:38:42;;;;;;;23.10;17.88;;;;;;;;;;9984044;29;20229;-69
2022/08/17 03:43:40;;;;;;;21.75;19.50;;;;;;;;;;9989457;29;20092;-69
2022/08/17 03:59:15;;;;;;;22.55;19.58;;;;;;;;;;9983542;29;20076;-69
2022/08/17 04:04:18;;;;;;;22.58;18.23;;;;;;;;;;9984703;29;20048;-69
2022/08/17 04:09:22;;;;;;;27.00;18.25;;;;;;;;;;9987206;29;20050;-69
2022/08/17 04:14:19;;;;;;;20.60;18.40;;;;;;;;;;9986885;29;20502;-70
2022/08/17 04:19:15;;;;;;;23.17;20.02;;;;;;;;;;9974542;29;20048;-70
2022/08/17 04:24:12;;;;;;;21.33;17.95;;;;;;;;;;9973278;29;20074;-70
2022/08/17 04:29:08;;;;;;;22.40;19.88;;;;;;;;;;9983233;29;20080;-70
2022/08/17 04:34:04;;;;;;;23.17;19.38;;;;;;;;;;9994397;29;20091;-69
2022/08/17 04:39:01;;;;;;;19.80;17.70;;;;;;;;;;9988937;29;20135;-71
2022/08/17 04:43:57;;;;;;;20.35;16.83;;;;;;;;;;9994849;29;20135;-71
2022/08/17 04:48:55;;;;;;;20.58;16.42;;;;;;;;;;9994957;29;20091;-70
2022/08/17 04:53:53;;;;;;;19.95;16.65;;;;;;;;;;9995282;29;20097;-71
2022/08/17 04:58:51;;;;;;;19.30;17.30;;;;;;;;;;9994440;29;20558;-70
2022/08/17 05:03:47;;;;;;;21.80;18.45;;;;;;;;;;9993540;29;20050;-70
2022/08/17 05:08:44;;;;;;;20.73;17.83;;;;;;;;;;9994225;29;20060;-71
2022/08/17 05:13:40;;;;;;;19.80;16.10;;;;;;;;;;9997289;29;20040;-70
2022/08/17 05:18:37;;;;;;;20.67;18.30;;;;;;;;;;9995628;29;20573;-71
2022/08/17 05:23:34;;;;;;;20.40;17.73;;;;;;;;;;9997344;29;20367;-70
2022/08/17 05:28:38;;;;;;;18.45;15.52;;;;;;;;;;9985341;29;20079;-70
2022/08/17 05:33:40;;;;;;;17.70;15.68;;;;;;;;;;9994418;29;20167;-71
2022/08/17 05:38:41;;;;;;;20.15;18.05;;;;;;;;;;9994109;29;20562;-71
2022/08/17 05:43:39;;;;;;;20.77;17.73;;;;;;;;;;9993706;29;20107;-71
2022/08/17 05:48:37;;;;;;;19.58;17.48;;;;;;;;;;9995136;29;20139;-71
2022/08/17 05:53:47;;;;;;;21.30;18.73;;;;;;;;;;9987250;29;20391;-70
2022/08/17 05:59:02;;;;;;;19.80;17.70;;;;;;;;;;9992518;29;20076;-71
2022/08/17 06:04:16;;;;;;;19.85;17.85;;;;;;;;;;9996627;29;20125;-70
2022/08/17 06:09:34;;;;;;;19.20;16.92;;;;;;;;;;9991978;29;20052;-71
2022/08/17 06:14:36;;;;;;;20.85;17.27;;;;;;;;;;9984910;29;20076;-71
2022/08/17 06:19:33;;;;;;;;;;;;;;;;;;9993405;29;20139;-71
2022/08/17 06:24:48;;;;;;;16.70;14.10;;;;;;;;;;9992403;29;20370;-71
2022/08/17 06:29:51;;;;;;;19.60;14.30;;;;;;;;;;9987896;29;20052;-71
2022/08/17 06:34:47;;;;;;;14.65;13.13;;;;;;;;;;9991950;29;20079;-71
2022/08/17 06:39:50;;;;;;;21.90;16.65;;;;;;;;;;10001129;29;20566;-71
2022/08/17 06:44:50;;;;;;;13.82;12.30;;;;;;;;;;9981226;29;20048;-71
2022/08/17 06:49:48;;;;;;;16.95;15.13;;;;;;;;;;9984020;29;20489;-71
2022/08/17 06:54:50;;;;;;;15.32;13.07;;;;;;;;;;9979820;29;20443;-71
2022/08/17 06:59:49;;;;;;;18.17;14.32;;;;;;;;;;9987598;29;20183;-71
2022/08/17 07:04:52;;;;;;;15.63;13.80;;;;;;;;;;9975653;29;20040;-72
2022/08/17 07:09:51;;;;;;;14.05;11.68;;;;;;;;;;9982121;29;20055;-71
2022/08/17 07:14:52;;;;;;;17.48;13.52;;;;;;;;;;9983161;29;20146;-72
2022/08/17 07:19:52;;;;;;;16.17;13.23;;;;;;;;;;9982895;29;20087;-72
2022/08/17 07:24:57;;;;;;;13.20;11.43;;;;;;;;;;9982070;29;20119;-72
2022/08/17 07:29:56;;;;;;;15.07;12.35;;;;;;;;;;9978259;29;20583;-71
2022/08/17 07:34:58;;;;;;;11.45;9.80;;;;;;;;;;9979113;29;20040;-71
2022/08/17 07:39:55;;;;;;;13.80;10.07;;;;;;;;;;9987531;29;20055;-69
2022/08/17 07:48:17;;;;;;;10.57;9.52;;;;;;;;;;9987610;29;20107;-69
2022/08/17 07:50:28;;;;;;;10.05;8.98;;;;;;;;;;9975976;29;20708;-70
2022/08/17 07:55:28;;;;;;;11.02;9.32;;;;;;;;;;9981130;29;20107;-69
2022/08/17 08:00:24;;;;;;;9.55;8.55;;;;;;;;;;9981526;29;20052;-69
2022/08/17 08:05:29;;;;;;;9.65;8.75;;;;;;;;;;9976051;29;20104;-70
2022/08/17 08:10:56;;;;;;;9.05;8.05;;;;;;;;;;9981278;29;20062;-69
2022/08/17 08:15:53;;;;;;;10.40;9.07;;;;;;;;;;9991939;29;20495;-70
2022/08/17 08:20:57;;;;;;;10.70;9.60;;;;;;;;;;9985339;29;20067;-69
2022/08/17 08:25:59;;;;;;;9.57;8.77;;;;;;;;;;9982481;29;20047;-70
2022/08/17 08:30:56;;;;;;;;;;;;;;;;;;10011186;29;20040;-69
2022/08/17 08:35:54;;;;;;;9.88;8.82;;;;;;;;;;9987790;29;19982;-70
2022/08/17 08:41:08;;;;;;;10.60;9.40;;;;;;;;;;9983104;29;20075;-70
2022/08/17 08:46:23;;;;;;;9.55;8.65;;;;;;;;;;9993368;29;20147;-70
2022/08/17 08:51:38;;;;;;;9.63;8.82;;;;;;;;;;9992577;29;20040;-70
2022/08/17 08:56:53;;;;;;;9.88;9.10;;;;;;;;;;9995085;29;20048;-70
2022/08/17 09:02:39;;;;;;;10.45;9.65;;;;;;;;;;9993636;29;20127;-70
2022/08/17 09:07:41;;;;;;;10.38;9.48;;;;;;;;;;9993477;29;20146;-70
2022/08/17 09:13:01;;;;;;;10.30;9.23;;;;;;;;;;9995172;29;20044;-70
2022/08/17 09:18:09;;;;;;;10.20;9.30;;;;;;;;;;9991165;29;20765;-70
2022/08/17 09:23:31;;;;;;;10.43;9.27;;;;;;;;;;9993284;29;20052;-69
2022/08/17 09:28:31;;;;;;;10.77;9.77;;;;;;;;;;9992183;29;20127;-70
2022/08/17 09:33:28;;;;;;;11.60;10.05;;;;;;;;;;9993323;29;20135;-70
2022/08/17 09:38:42;;;;;;;10.77;9.77;;;;;;;;;;9989374;29;20076;-70
2022/08/17 09:43:45;;;;;;;16.63;11.50;;;;;;;;;;9984584;29;20076;-70
2022/08/17 09:48:49;;;;;;;44.88;15.32;;;;;;;;;;9986416;29;20083;-70
2022/08/17 09:53:45;;;;;;;16.50;11.05;;;;;;;;;;9990215;29;20055;-71
2022/08/17 09:59:00;;;;;;;10.43;9.43;;;;;;;;;;9989245;29;20052;-73
2022/08/17 10:04:03;;;;;;;12.32;11.13;;;;;;;;;;9992559;29;20139;-72
2022/08/17 10:09:06;;;;;;;10.77;9.88;;;;;;;;;;9991024;29;20112;-73
2022/08/17 10:14:08;;;;;;;11.23;10.15;;;;;;;;;;9990083;29;20167;-73
2022/08/17 10:19:27;;;;;;;10.77;9.70;;;;;;;;;;9989457;29;20410;-73
2022/08/17 10:30:22;;;;;;;11.68;10.70;;;;;;;;;;9981428;29;20048;-71
2022/08/17 10:35:32;;;;;;;13.02;10.20;;;;;;;;;;9986531;29;20407;-71
2022/08/17 10:40:35;;;;;;;11.07;9.93;;;;;;;;;;9988731;29;20070;-70
2022/08/17 10:45:36;;;;;;;10.57;9.68;;;;;;;;;;9989493;29;20048;-70
2022/08/17 10:50:46;;;;;;;10.27;9.38;;;;;;;;;;9980401;29;20074;-71
2022/08/17 10:56:04;;;;;;;11.00;10.07;;;;;;;;;;9978965;29;20048;-71
2022/08/17 11:01:01;;;;;;;11.40;10.30;;;;;;;;;;9979327;29;20198;-71
2022/08/17 11:06:16;;;;;;;10.65;9.57;;;;;;;;;;9978613;29;20044;-71
2022/08/17 11:11:25;;;;;;;11.38;10.38;;;;;;;;;;9979502;29;20080;-71
2022/08/17 11:16:31;;;;;;;10.68;9.73;;;;;;;;;;9984550;29;20099;-71
2022/08/17 11:21:33;;;;;;;10.35;9.45;;;;;;;;;;9989579;29;21071;-71
2022/08/17 11:26:35;;;;;;;10.82;9.93;;;;;;;;;;9983684;29;20131;-71
2022/08/17 11:31:38;;;;;;;10.63;9.63;;;;;;;;;;9983266;29;20514;-71
2022/08/17 11:36:49;;;;;;;10.50;9.60;;;;;;;;;;9984542;29;20044;-71
2022/08/17 11:41:58;;;;;;;11.30;10.27;;;;;;;;;;9982147;29;20071;-71
2022/08/17 11:52:41;;;;;;;10.95;10.02;;;;;;;;;;9983865;29;20096;-70
2022/08/17 11:57:41;;;;;;;10.20;9.20;;;;;;;;;;9979959;29;20040;-71
2022/08/17 12:02:41;;;;;;;9.80;8.95;;;;;;;;;;9978734;29;20052;-71
2022/08/17 12:07:51;;;;;;;10.57;9.57;;;;;;;;;;9976838;29;20064;-71
2022/08/17 12:12:49;;;;;;;12.20;9.32;;;;;;;;;;9994861;29;20040;-71
2022/08/17 12:17:52;;;;;;;11.45;8.95;;;;;;;;;;9984403;29;20282;-70
2022/08/17 12:23:07;;;;;;;10.27;9.38;;;;;;;;;;9979678;29;20092;-70
2022/08/17 12:28:16;;;;;;;11.13;9.88;;;;;;;;;;9977444;29;20471;-69
2022/08/17 12:33:16;;;;;;;10.10;9.20;;;;;;;;;;9981564;29;20076;-70
2022/08/17 12:38:23;;;;;;;10.52;9.63;;;;;;;;;;9989728;29;20100;-70
2022/08/17 12:43:31;;;;;;;10.15;9.35;;;;;;;;;;9986575;29;20140;-70
2022/08/17 12:48:30;;;;;;;10.45;9.65;;;;;;;;;;9989175;29;20099;-70
2022/08/17 12:53:28;;;;;;;11.75;10.75;;;;;;;;;;9989653;29;20052;-70
2022/08/17 12:58:29;;;;;;;12.00;10.93;;;;;;;;;;9992297;29;20044;-69
2022/08/17 13:03:29;;;;;;;8.93;8.23;;;;;;;;;;10001639;29;20048;-70
2022/08/17 13:08:34;;;;;;;9.38;8.43;;;;;;;;;;9990703;29;20044;-70
2022/08/17 13:13:32;;;;;;;9.38;8.68;;;;;;;;;;9989492;29;20041;-70
2022/08/17 13:18:34;;;;;;;9.80;8.90;;;;;;;;;;9998313;29;20445;-70
2022/08/17 13:23:31;;;;;;;9.23;8.27;;;;;;;;;;9986037;29;20132;-70
2022/08/17 13:28:27;;;;;;;9.13;8.23;;;;;;;;;;9993250;29;20120;-70
2022/08/17 13:33:31;;;;;;;8.93;8.15;;;;;;;;;;9996334;29;20552;-70
2022/08/17 13:38:46;;;;;;;9.10;8.30;;;;;;;;;;9988156;29;20141;-71
2022/08/17 13:43:43;;;;;;;8.82;7.80;;;;;;;;;;9988985;29;20040;-70
2022/08/17 13:48:40;;;;;;;10.00;8.23;;;;;;;;;;9989326;29;20048;-70
2022/08/17 13:53:36;;;;;;;8.90;8.10;;;;;;;;;;9986553;29;20146;-70
2022/08/17 13:58:54;;;;;;;9.60;8.48;;;;;;;;;;9991231;29;20075;-70
2022/08/17 14:03:50;;;;;;;8.98;8.18;;;;;;;;;;9990911;29;20131;-70
2022/08/17 14:08:46;;;;;;;8.82;8.13;;;;;;;;;;9983427;29;20100;-70
2022/08/17 14:13:45;;;;;;;9.10;7.93;;;;;;;;;;9984462;29;20048;-70
2022/08/17 14:18:41;;;;;;;8.98;8.18;;;;;;;;;;9983609;29;20047;-69
2022/08/17 14:23:52;;;;;;;8.43;7.67;;;;;;;;;;9989379;29;20178;-70
2022/08/17 14:28:50;;;;;;;9.50;8.80;;;;;;;;;;9981865;29;20052;-71
2022/08/17 14:33:52;;;;;;;9.48;8.77;;;;;;;;;;9989035;29;20494;-70
2022/08/17 14:38:49;;;;;;;9.05;8.32;;;;;;;;;;9992205;29;20072;-69
2022/08/17 14:43:45;;;;;;;8.35;7.60;;;;;;;;;;9990592;29;20074;-70
2022/08/17 14:48:41;;;;;;;9.73;7.78;;;;;;;;;;9987266;29;20147;-71
2022/08/17 14:53:39;;;;;;;8.77;7.97;;;;;;;;;;9979310;29;20048;-70
2022/08/17 14:58:36;;;;;;;9.18;8.38;;;;;;;;;;9984028;29;20067;-70
2022/08/17 15:03:33;;;;;;;8.82;8.02;;;;;;;;;;9994106;29;20079;-70
2022/08/17 15:08:30;;;;;;;9.57;8.57;;;;;;;;;;9992193;29;20132;-70
2022/08/17 15:13:26;;;;;;;9.02;8.25;;;;;;;;;;9993200;29;20103;-70
2022/08/17 15:18:23;;;;;;;10.50;9.70;;;;;;;;;;9987365;29;20140;-70
2022/08/17 15:23:21;;;;;;;9.43;8.63;;;;;;;;;;9990451;29;20107;-70
2022/08/17 15:28:21;;;;;;;10.20;8.98;;;;;;;;;;9991100;29;20071;-70
2022/08/17 15:33:22;;;;;;;10.38;9.57;;;;;;;;;;9994238;29;20640;-70
2022/08/17 15:38:19;;;;;;;9.90;9.10;;;;;;;;;;9990092;29;20120;-69
2022/08/17 15:43:15;;;;;;;10.85;9.82;;;;;;;;;;9992662;29;20108;-70
2022/08/17 15:48:15;;;;;;;10.80;9.85;;;;;;;;;;9989324;29;20533;-69
2022/08/17 15:53:11;;;;;;;10.57;9.57;;;;;;;;;;9983215;29;20107;-70
2022/08/17 15:58:09;;;;;;;10.50;9.50;;;;;;;;;;9985160;29;20083;-69
2022/08/17 16:03:05;;;;;;;10.95;9.95;;;;;;;;;;9982214;29;20095;-69
2022/08/17 16:08:22;;;;;;;10.85;9.02;;;;;;;;;;9981025;29;20664;-69
2022/08/17 16:13:18;;;;;;;10.52;9.43;;;;;;;;;;9983368;29;20059;-69
2022/08/17 16:18:15;;;;;;;11.25;10.20;;;;;;;;;;10000614;29;20163;-69
2022/08/17 16:23:12;;;;;;;10.50;9.40;;;;;;;;;;9983633;29;20563;-69
2022/08/17 16:28:15;;;;;;;9.50;8.70;;;;;;;;;;9987499;29;20048;-68
2022/08/17 16:33:12;;;;;;;11.70;10.57;;;;;;;;;;9994308;29;20135;-68
2022/08/17 16:38:09;;;;;;;9.88;8.98;;;;;;;;;;9993704;29;20093;-68
2022/08/17 16:43:09;;;;;;;12.82;9.73;;;;;;;;;;9991744;29;20083;-68
2022/08/17 16:48:06;;;;;;;10.80;9.90;;;;;;;;;;9991163;29;20052;-68
2022/08/17 16:53:05;;;;;;;10.30;9.30;;;;;;;;;;9994886;29;20055;-68
2022/08/17 16:58:03;;;;;;;9.25;8.35;;;;;;;;;;9990150;29;21357;-68
2022/08/17 17:03:07;;;;;;;10.35;9.00;;;;;;;;;;9991785;29;20056;-68
2022/08/17 17:08:18;;;;;;;11.43;8.27;;;;;;;;;;9991250;29;20051;-69
2022/08/17 17:13:33;;;;;;;10.63;9.15;;;;;;;;;;9992135;29;20072;-68
2022/08/17 17:18:38;;;;;;;10.40;8.73;;;;;;;;;;9991428;29;20040;-69
2022/08/17 17:23:38;;;;;;;10.23;8.85;;;;;;;;;;9991133;29;20187;-68
2022/08/17 17:28:53;;;;;;;9.88;8.98;;;;;;;;;;9995512;29;20076;-69
2022/08/17 17:33:59;;;;;;;11.55;8.88;;;;;;;;;;9993401;29;20108;-68
2022/08/17 17:39:00;;;;;;;8.98;8.18;;;;;;;;;;9990962;29;20557;-68
2022/08/17 17:44:17;;;;;;;9.90;8.90;;;;;;;;;;9990404;29;20115;-68
2022/08/17 17:49:15;;;;;;;9.25;8.32;;;;;;;;;;9988272;29;20234;-68
2022/08/17 17:54:32;;;;;;;8.98;8.20;;;;;;;;;;9986555;29;20044;-68
2022/08/17 17:59:35;;;;;;;11.85;8.93;;;;;;;;;;9986781;29;20131;-68
2022/08/17 18:04:43;;;;;;;9.18;8.38;;;;;;;;;;9988993;29;20115;-68
2022/08/17 18:09:52;;;;;;;9.48;8.10;;;;;;;;;;9991930;29;20059;-68
2022/08/17 18:15:01;;;;;;;32.72;10.10;;;;;;;;;;10007045;29;20045;-68
2022/08/17 18:19:58;;;;;;;10.00;8.77;;;;;;;;;;9991827;29;20036;-69
2022/08/17 18:24:56;;;;;;;10.07;9.10;;;;;;;;;;9990939;29;20044;-68
2022/08/17 18:29:53;;;;;;;10.25;9.07;;;;;;;;;;9994663;29;20103;-68
2022/08/17 18:34:52;;;;;;;9.85;8.75;;;;;;;;;;9990267;29;20048;-68
2022/08/17 18:39:48;;;;;;;13.43;8.80;;;;;;;;;;9991632;29;20562;-71
2022/08/17 18:44:45;;;;;;;20.58;8.40;;;;;;;;;;9993229;29;20059;-70
2022/08/17 18:49:49;;;;;;;17.23;6.75;;;;;;;;;;9979665;29;20709;-68
2022/08/17 18:55:00;;;;;;;12.00;7.05;;;;;;;;;;9995698;29;20175;-68
2022/08/17 18:59:57;;;;;;;12.87;6.00;;;;;;;;;;9987135;29;20139;-69
2022/08/17 19:04:53;;;;;;;10.10;6.20;;;;;;;;;;9986891;29;21089;-68
2022/08/17 19:09:55;;;;;;;11.48;6.20;;;;;;;;;;9986216;29;20084;-69
2022/08/17 19:14:54;;;;;;;9.27;6.05;;;;;;;;;;9984048;29;20048;-69
2022/08/17 19:19:50;;;;;;;12.15;7.03;;;;;;;;;;9986282;29;20119;-69
2022/08/17 19:24:47;;;;;;;9.52;6.80;;;;;;;;;;9990038;29;20498;-69
2022/08/17 19:29:46;;;;;;;10.18;7.10;;;;;;;;;;9978923;29;20119;-70
2022/08/17 19:34:43;;;;;;;8.50;5.45;;;;;;;;;;9976936;29;20143;-70
2022/08/17 19:39:48;;;;;;;6.97;4.78;;;;;;;;;;9988046;29;20044;-69
2022/08/17 19:44:53;;;;;;;8.95;5.95;;;;;;;;;;9975400;29;20531;-70
2022/08/17 19:50:02;;;;;;;9.00;5.55;;;;;;;;;;9985635;29;20056;-68
2022/08/17 19:54:59;;;;;;;8.82;5.68;;;;;;;;;;9982824;29;20829;-69
2022/08/17 19:59:58;;;;;;;8.40;5.95;;;;;;;;;;9971572;29;20431;-70
2022/08/17 20:04:56;;;;;;;7.03;5.28;;;;;;;;;;9973272;29;20762;-69
2022/08/17 20:10:08;;;;;;;7.75;5.25;;;;;;;;;;9979514;29;20075;-70
2022/08/17 20:15:04;;;;;;;7.35;5.82;;;;;;;;;;9979101;29;20421;-70
2022/08/17 20:20:06;;;;;;;10.05;7.90;;;;;;;;;;9979475;29;20148;-71
2022/08/17 20:25:17;;;;;;;9.55;6.78;;;;;;;;;;9977875;29;20044;-70
2022/08/17 20:30:36;;;;;;;9.52;6.45;;;;;;;;;;9979556;29;20055;-72
2022/08/17 20:35:36;;;;;;;11.45;6.57;;;;;;;;;;9982802;29;20104;-72
2022/08/17 20:40:38;;;;;;;11.55;7.82;;;;;;;;;;9985224;29;20115;-70
2022/08/17 20:45:37;;;;;;;9.07;6.30;;;;;;;;;;9984301;29;20048;-71
2022/08/17 20:50:35;;;;;;;7.55;5.47;;;;;;;;;;9996651;29;20408;-71
2022/08/17 20:55:31;;;;;;;7.60;5.63;;;;;;;;;;9982849;29;20123;-70
2022/08/17 21:00:27;;;;;;;11.65;6.70;;;;;;;;;;9977594;29;20220;-70
2022/08/17 21:05:35;;;;;;;13.85;7.55;;;;;;;;;;9984252;29;20056;-71
2022/08/17 21:10:34;;;;;;;7.57;6.30;;;;;;;;;;9981300;29;20098;-71
2022/08/17 21:15:48;;;;;;;8.18;5.80;;;;;;;;;;9985852;29;20503;-71
2022/08/17 21:21:05;;;;;;;7.28;6.40;;;;;;;;;;9988413;29;20118;-70
2022/08/17 21:26:28;;;;;;;7.93;5.93;;;;;;;;;;9985150;29;20089;-71
2022/08/17 21:31:27;;;;;;;7.88;5.60;;;;;;;;;;9976311;29;20048;-68
2022/08/17 21:36:28;;;;;;;;;;;;;;;;;;9986123;29;20566;-69
2022/08/17 21:41:27;;;;;;;6.68;4.15;;;;;;;;;;9983521;29;19970;-70
2022/08/17 21:46:23;;;;;;;6.50;4.18;;;;;;;;;;9982152;29;20047;-73
2022/08/17 21:51:22;;;;;;;6.38;4.72;;;;;;;;;;9990247;29;20064;-74
2022/08/17 21:56:21;;;;;;;7.03;4.93;;;;;;;;;;9983683;29;20116;-71
2022/08/17 22:01:17;;;;;;;7.40;4.30;;;;;;;;;;9991588;29;20094;-71
2022/08/17 22:06:22;;;;;;;7.10;4.78;;;;;;;;;;9991812;29;20052;-72
2022/08/17 22:11:18;;;;;;;5.40;4.20;;;;;;;;;;9980226;29;20421;-72
2022/08/17 22:16:16;;;;;;;7.00;5.20;;;;;;;;;;9980906;29;20415;-72
2022/08/17 22:21:24;;;;;;;8.70;4.68;;;;;;;;;;10001577;29;20053;-72
2022/08/17 22:26:22;;;;;;;5.45;4.13;;;;;;;;;;9984292;29;20052;-72
2022/08/17 22:31:20;;;;;;;5.30;4.47;;;;;;;;;;9982524;29;20530;-72
2022/08/17 22:36:23;;;;;;;6.53;4.13;;;;;;;;;;9993679;29;20056;-72
2022/08/17 22:41:33;;;;;;;7.47;4.90;;;;;;;;;;9995792;29;20047;-73
2022/08/17 22:46:30;;;;;;;9.15;4.15;;;;;;;;;;9978725;29;20518;-72
2022/08/17 22:51:28;;;;;;;5.35;3.63;;;;;;;;;;9989614;29;20051;-70
2022/08/17 23:01:40;;;;;;;5.88;3.58;;;;;;;;;;9978905;29;20122;-71
2022/08/17 23:06:37;;;;;;;9.20;3.72;;;;;;;;;;9986480;29;20051;-71
2022/08/17 23:11:46;;;;;;;8.55;3.88;;;;;;;;;;9983705;29;20108;-72
2022/08/17 23:16:45;;;;;;;4.53;3.35;;;;;;;;;;9982430;29;20056;-72
2022/08/17 23:21:45;;;;;;;7.22;4.07;;;;;;;;;;9984299;29;20052;-73
2022/08/17 23:26:42;;;;;;;5.07;3.28;;;;;;;;;;9989577;29;20044;-72
2022/08/17 23:31:38;;;;;;;5.03;3.08;;;;;;;;;;9986053;29;20418;-71
2022/08/17 23:36:35;;;;;;;4.35;2.83;;;;;;;;;;9981969;29;20396;-71
2022/08/17 23:41:33;;;;;;;6.97;3.05;;;;;;;;;;9979307;29;20051;-71
2022/08/17 23:46:30;;;;;;;6.28;2.92;;;;;;;;;;9977927;29;20068;-71
2022/08/17 23:51:27;;;;;;;5.97;2.70;;;;;;;;;;9975107;29;20075;-71
2022/08/17 23:56:24;;;;;;;8.32;2.78;;;;;;;;;;9985990;29;20056;-70
